Terminal Aerodrome Forecast
Issued by NWS Rapid City, SD

Home | Current Version | Previous Version | Graphics & Text | Print | Product List | Glossary Off
Versions: 1 2 3 4 5 6 7 8 9 10 11 12 13 14 15

000
FTUS43 KUNR 101700
TAFRAP
TAF
KRAP 101732Z 1018/1118 VRB05KT P6SM SCT120
     FM102000 05008KT P6SM SCT100
      TEMPO 1103/1106 -TSRA BKN060CB
     FM110600 32007KT P6SM BKN150=

USA.gov is the U.S. government's official web portal to all federal, state and local government web resources and services.